createdAt,value
2018-06-02T00:00:46.957Z,19.84
2018-06-02T00:01:46.979Z,19.77
2018-06-02T00:02:46.968Z,19.78
2018-06-02T00:03:46.949Z,19.78
2018-06-02T00:04:47.002Z,19.8
2018-06-02T00:05:46.961Z,19.76
2018-06-02T00:06:47.003Z,19.84
2018-06-02T00:07:46.683Z,19.84
2018-06-02T00:08:46.966Z,19.73
2018-06-02T00:09:46.973Z,19.69
2018-06-02T00:10:46.949Z,19.78
2018-06-02T00:11:46.926Z,19.77
2018-06-02T00:12:46.985Z,19.77
2018-06-02T00:13:46.975Z,19.78
2018-06-02T00:14:46.969Z,19.76
2018-06-02T00:15:46.987Z,19.74
2018-06-02T00:16:46.920Z,19.73
2018-06-02T00:17:46.686Z,19.78
2018-06-02T00:18:46.656Z,19.83
2018-06-02T00:19:46.689Z,19.69
2018-06-02T00:20:46.652Z,19.74
2018-06-02T00:21:46.954Z,19.77
2018-06-02T00:22:46.660Z,19.73
2018-06-02T00:23:46.928Z,19.73
2018-06-02T00:24:46.894Z,19.76
2018-06-02T00:25:46.903Z,19.69
2018-06-02T00:26:46.897Z,19.69
2018-06-02T00:27:46.917Z,19.76
2018-06-02T00:28:46.882Z,19.66
2018-06-02T00:29:46.905Z,19.66
2018-06-02T00:30:46.637Z,19.63
2018-06-02T00:31:46.908Z,19.71
2018-06-02T00:32:46.870Z,19.71
2018-06-02T00:33:46.907Z,19.63
2018-06-02T00:34:46.870Z,19.63
2018-06-02T00:35:46.908Z,19.63
2018-06-02T00:36:46.867Z,19.66
2018-06-02T00:37:47.333Z,19.65
2018-06-02T00:38:46.875Z,19.65
2018-06-02T00:39:46.895Z,19.65
2018-06-02T00:40:46.847Z,19.68
2018-06-02T00:41:46.850Z,19.68
2018-06-02T00:42:46.609Z,19.55
2018-06-02T00:43:46.879Z,19.5
2018-06-02T00:44:46.899Z,19.59
2018-06-02T00:45:46.603Z,19.56
2018-06-02T00:46:46.852Z,19.56
2018-06-02T00:47:46.875Z,19.58
2018-06-02T00:48:46.863Z,19.59
2018-06-02T00:49:46.838Z,19.59
2018-06-02T00:50:46.855Z,19.56
2018-06-02T00:51:46.599Z,19.47
2018-06-02T00:52:46.850Z,19.58
2018-06-02T00:53:46.832Z,19.5
2018-06-02T00:54:46.838Z,19.5
2018-06-02T00:55:46.593Z,19.54
2018-06-02T00:56:46.552Z,19.47
2018-06-02T00:57:46.813Z,19.58
2018-06-02T00:58:46.558Z,19.51
2018-06-02T00:59:46.832Z,19.54
2018-06-02T01:00:46.837Z,19.51
2018-06-02T01:01:46.797Z,19.48
2018-06-02T01:02:46.807Z,19.4
2018-06-02T01:03:46.806Z,19.47
2018-06-02T01:04:46.815Z,19.41
2018-06-02T01:05:46.790Z,19.4
2018-06-02T01:06:46.554Z,19.32
2018-06-02T01:07:46.778Z,19.32
2018-06-02T01:08:46.809Z,19.37
2018-06-02T01:09:46.774Z,19.41
2018-06-02T01:10:46.788Z,19.4
2018-06-02T01:11:46.512Z,19.39
2018-06-02T01:12:46.799Z,19.37
2018-06-02T01:13:46.530Z,19.36
2018-06-02T01:14:46.781Z,19.36
2018-06-02T01:15:46.752Z,19.37
2018-06-02T01:16:46.748Z,19.29
2018-06-02T01:17:46.776Z,19.41
2018-06-02T01:18:46.505Z,19.37
2018-06-02T01:19:46.774Z,19.39
2018-06-02T01:20:46.883Z,19.4
2018-06-02T01:21:46.748Z,19.31
2018-06-02T01:22:46.801Z,19.4
2018-06-02T01:23:46.776Z,19.39
2018-06-02T01:24:46.763Z,19.36
2018-06-02T01:25:46.728Z,19.44
2018-06-02T01:26:46.758Z,19.43
2018-06-02T01:27:46.730Z,19.39
2018-06-02T01:28:46.493Z,19.37
2018-06-02T01:29:46.764Z,19.39
2018-06-02T01:30:46.756Z,19.41
2018-06-02T01:31:46.718Z,19.37
2018-06-02T01:32:46.705Z,19.37
2018-06-02T01:33:46.732Z,19.36
2018-06-02T01:34:46.474Z,19.31
2018-06-02T01:35:46.730Z,19.39
2018-06-02T01:36:46.692Z,19.39
2018-06-02T01:37:46.462Z,19.37
2018-06-02T01:38:46.443Z,19.39
2018-06-02T01:39:46.718Z,19.32
2018-06-02T01:40:46.706Z,19.37
2018-06-02T01:41:46.728Z,19.39
2018-06-02T01:42:46.695Z,19.43
2018-06-02T01:43:46.713Z,19.33
2018-06-02T01:44:46.682Z,19.4
2018-06-02T01:45:46.439Z,19.43
2018-06-02T01:46:46.706Z,19.36
2018-06-02T01:47:46.664Z,19.43
2018-06-02T01:48:46.660Z,19.39
2018-06-02T01:49:46.690Z,19.37
2018-06-02T01:50:46.926Z,19.46
2018-06-02T01:51:46.694Z,19.37
2018-06-02T01:52:46.671Z,19.44
2018-06-02T01:53:46.432Z,19.43
2018-06-02T01:54:46.390Z,19.44
2018-06-02T01:55:46.676Z,19.44
2018-06-02T01:56:46.651Z,19.46
2018-06-02T01:57:46.674Z,19.51
2018-06-02T01:58:46.653Z,19.51
2018-06-02T01:59:46.665Z,19.55
2018-06-02T02:00:46.654Z,19.55
2018-06-02T02:01:46.630Z,19.56
2018-06-02T02:02:46.641Z,19.54
2018-06-02T02:03:46.667Z,19.56
2018-06-02T02:04:46.655Z,19.44
2018-06-02T02:05:46.627Z,19.59
2018-06-02T02:06:46.633Z,19.55
2018-06-02T02:07:46.606Z,19.48
2018-06-02T02:08:46.656Z,19.58
2018-06-02T02:09:46.607Z,19.56
2018-06-02T02:10:46.617Z,19.51
2018-06-02T02:11:46.634Z,19.55
2018-06-02T02:12:46.615Z,19.54
2018-06-02T02:13:46.627Z,19.55
2018-06-02T02:14:46.602Z,19.54
2018-06-02T02:15:46.620Z,19.51
2018-06-02T02:16:46.582Z,19.61
2018-06-02T02:17:46.336Z,19.59
2018-06-02T02:18:46.595Z,19.61
2018-06-02T02:19:46.621Z,19.59
2018-06-02T02:20:46.090Z,19.65
2018-06-02T02:21:46.826Z,19.63
2018-06-02T02:22:46.581Z,19.66
2018-06-02T02:23:46.351Z,19.59
2018-06-02T02:24:46.563Z,19.66
2018-06-02T02:25:46.591Z,19.55
2018-06-02T02:26:46.556Z,19.59
2018-06-02T02:27:46.329Z,19.55
2018-06-02T02:28:46.579Z,19.65
2018-06-02T02:29:46.581Z,19.59
2018-06-02T02:30:46.567Z,19.63
2018-06-02T02:31:46.583Z,19.63
2018-06-02T02:32:46.301Z,19.62
2018-06-02T02:33:46.549Z,19.55
2018-06-02T02:34:46.556Z,19.65
2018-06-02T02:35:46.565Z,19.61
2018-06-02T02:36:46.279Z,19.51
2018-06-02T02:37:46.576Z,19.59
2018-06-02T02:38:46.562Z,19.58
2018-06-02T02:39:46.556Z,19.61
2018-06-02T02:40:46.265Z,19.63
2018-06-02T02:41:46.546Z,19.65
2018-06-02T02:42:46.520Z,19.65
2018-06-02T02:43:46.553Z,19.62
2018-06-02T02:44:46.508Z,19.66
2018-06-02T02:45:46.291Z,19.65
2018-06-02T02:46:46.518Z,19.65
2018-06-02T02:47:46.533Z,19.62
2018-06-02T02:48:46.512Z,19.62
2018-06-02T02:49:46.500Z,19.68
2018-06-02T02:50:46.518Z,19.65
2018-06-02T02:51:46.521Z,19.69
2018-06-02T02:52:46.514Z,19.65
2018-06-02T02:53:46.493Z,19.66
2018-06-02T02:54:46.243Z,19.63
2018-06-02T02:55:46.495Z,19.66
2018-06-02T02:56:46.515Z,19.69
2018-06-02T02:57:46.478Z,19.69
2018-06-02T02:58:46.254Z,19.66
2018-06-02T02:59:46.218Z,19.63
2018-06-02T03:00:46.509Z,19.71
2018-06-02T03:01:46.485Z,19.69
2018-06-02T03:02:46.527Z,19.74
2018-06-02T03:03:46.506Z,19.71
2018-06-02T03:04:46.200Z,19.76
2018-06-02T03:05:46.455Z,19.73
2018-06-02T03:06:46.477Z,19.81
2018-06-02T03:07:46.482Z,19.74
2018-06-02T03:08:46.477Z,19.76
2018-06-02T03:09:46.449Z,19.76
2018-06-02T03:10:46.455Z,19.76
2018-06-02T03:11:46.440Z,19.78
2018-06-02T03:12:46.476Z,19.76
2018-06-02T03:13:46.179Z,19.76
2018-06-02T03:14:46.224Z,19.73
2018-06-02T03:15:46.179Z,19.81
2018-06-02T03:16:46.452Z,19.83
2018-06-02T03:17:46.164Z,19.81
2018-06-02T03:18:46.176Z,19.86
2018-06-02T03:19:46.409Z,19.8
2018-06-02T03:20:46.185Z,19.78
2018-06-02T03:21:46.446Z,19.88
2018-06-02T03:22:46.432Z,19.84
2018-06-02T03:23:46.651Z,19.87
2018-06-02T03:24:46.396Z,19.84
2018-06-02T03:25:46.423Z,19.91
2018-06-02T03:26:46.412Z,19.83
2018-06-02T03:27:46.138Z,19.84
2018-06-02T03:28:46.167Z,19.88
2018-06-02T03:29:46.136Z,19.84
2018-06-02T03:30:46.425Z,19.87
2018-06-02T03:31:46.450Z,19.94
2018-06-02T03:32:46.154Z,19.92
2018-06-02T03:33:46.121Z,19.92
2018-06-02T03:34:46.391Z,19.87
2018-06-02T03:35:46.369Z,19.92
2018-06-02T03:36:46.398Z,19.98
2018-06-02T03:37:46.398Z,19.98
2018-06-02T03:38:46.407Z,19.96
2018-06-02T03:39:46.113Z,19.99
2018-06-02T03:40:46.362Z,19.92
2018-06-02T03:41:46.380Z,19.98
2018-06-02T03:42:46.115Z,19.94
2018-06-02T03:43:46.127Z,19.88
2018-06-02T03:44:46.346Z,19.92
2018-06-02T03:45:46.374Z,20.01
2018-06-02T03:46:46.107Z,20.02
2018-06-02T03:47:46.372Z,20.01
2018-06-02T03:48:46.348Z,20.03
2018-06-02T03:49:46.368Z,20.08
2018-06-02T03:50:46.349Z,20.08
2018-06-02T03:51:46.362Z,20.06
2018-06-02T03:52:46.324Z,20.03
2018-06-02T03:53:46.095Z,20.02
2018-06-02T03:54:46.341Z,20.02
2018-06-02T03:55:46.071Z,20.05
2018-06-02T03:56:46.319Z,20.03
2018-06-02T03:57:46.340Z,20.16
2018-06-02T03:58:46.084Z,20.14
2018-06-02T03:59:46.344Z,20.17
2018-06-02T04:00:46.308Z,20.18
2018-06-02T04:01:46.331Z,20.17
2018-06-02T04:02:46.307Z,20.06
2018-06-02T04:03:46.338Z,20.2
2018-06-02T04:04:46.300Z,20.16
2018-06-02T04:05:46.335Z,20.17
2018-06-02T04:06:46.312Z,20.2
2018-06-02T04:07:46.034Z,20.2
2018-06-02T04:08:46.325Z,20.17
2018-06-02T04:09:46.311Z,20.24
2018-06-02T04:10:46.299Z,20.29
2018-06-02T04:11:46.285Z,20.23
2018-06-02T04:12:46.023Z,20.24
2018-06-02T04:13:46.305Z,20.28
2018-06-02T04:14:46.289Z,20.24
2018-06-02T04:15:46.339Z,20.31
2018-06-02T04:16:46.266Z,20.29
2018-06-02T04:17:46.302Z,20.26
2018-06-02T04:18:46.278Z,20.24
2018-06-02T04:19:46.260Z,20.26
2018-06-02T04:20:46.296Z,20.2
2018-06-02T04:21:46.265Z,20.26
2018-06-02T04:22:46.018Z,20.21
2018-06-02T04:23:45.742Z,20.26
2018-06-02T04:24:46.281Z,20.31
2018-06-02T04:25:46.281Z,20.31
2018-06-02T04:26:46.262Z,20.32
2018-06-02T04:27:46.241Z,20.33
2018-06-02T04:28:46.236Z,20.39
2018-06-02T04:29:46.274Z,20.41
2018-06-02T04:30:45.995Z,20.33
2018-06-02T04:31:46.023Z,20.31
2018-06-02T04:32:45.975Z,20.36
2018-06-02T04:33:46.262Z,20.35
2018-06-02T04:34:46.230Z,20.39
2018-06-02T04:35:46.262Z,20.41
2018-06-02T04:36:45.969Z,20.35
2018-06-02T04:37:46.259Z,20.38
2018-06-02T04:38:45.971Z,20.39
2018-06-02T04:39:46.264Z,20.41
2018-06-02T04:40:46.261Z,20.51
2018-06-02T04:41:45.959Z,20.48
2018-06-02T04:42:46.421Z,20.52
2018-06-02T04:43:45.984Z,20.51
2018-06-02T04:44:46.200Z,20.51
2018-06-02T04:45:45.969Z,20.5
2018-06-02T04:46:46.222Z,20.51
2018-06-02T04:47:46.229Z,20.47
2018-06-02T04:48:46.193Z,20.55
2018-06-02T04:49:46.219Z,20.52
2018-06-02T04:50:46.191Z,20.52
2018-06-02T04:51:46.222Z,20.54
2018-06-02T04:52:46.185Z,20.52
2018-06-02T04:53:46.219Z,20.47
2018-06-02T04:54:46.194Z,20.51
2018-06-02T04:55:46.210Z,20.55
2018-06-02T04:56:46.177Z,20.52
2018-06-02T04:57:46.190Z,20.55
2018-06-02T04:58:45.935Z,20.59
2018-06-02T04:59:46.201Z,20.54
2018-06-02T05:00:45.684Z,20.54
2018-06-02T05:01:46.172Z,20.64
2018-06-02T05:02:45.922Z,20.61
2018-06-02T05:03:46.160Z,20.57
2018-06-02T05:04:46.195Z,20.61
2018-06-02T05:05:46.161Z,20.62
2018-06-02T05:06:46.187Z,20.66
2018-06-02T05:07:46.149Z,20.61
2018-06-02T05:08:46.183Z,20.59
2018-06-02T05:09:46.153Z,20.61
2018-06-02T05:10:46.164Z,20.66
2018-06-02T05:11:46.173Z,20.67
2018-06-02T05:12:46.141Z,20.66
2018-06-02T05:13:46.145Z,20.7
2018-06-02T05:14:46.152Z,20.66
2018-06-02T05:15:46.165Z,20.62
2018-06-02T05:16:46.168Z,20.64
2018-06-02T05:17:46.143Z,20.59
2018-06-02T05:18:46.142Z,20.61
2018-06-02T05:19:46.124Z,20.61
2018-06-02T05:20:46.156Z,20.69
2018-06-02T05:21:46.130Z,20.7
2018-06-02T05:22:46.156Z,20.73
2018-06-02T05:23:46.116Z,20.72
2018-06-02T05:24:46.149Z,20.72
2018-06-02T05:25:46.118Z,20.77
2018-06-02T05:26:46.138Z,20.67
2018-06-02T05:27:46.116Z,20.84
2018-06-02T05:28:46.389Z,20.8
2018-06-02T05:29:46.137Z,20.85
2018-06-02T05:30:45.866Z,20.87
2018-06-02T05:31:45.851Z,20.82
2018-06-02T05:32:46.106Z,20.88
2018-06-02T05:33:45.867Z,20.84
2018-06-02T05:34:45.863Z,20.91
2018-06-02T05:35:46.090Z,20.87
2018-06-02T05:36:46.126Z,20.91
2018-06-02T05:37:46.097Z,20.95
2018-06-02T05:38:46.127Z,20.95
2018-06-02T05:39:46.085Z,20.94
2018-06-02T05:40:45.860Z,20.97
2018-06-02T05:41:46.085Z,20.95
2018-06-02T05:42:46.107Z,20.97
2018-06-02T05:43:46.078Z,20.99
2018-06-02T05:44:46.117Z,21.01
2018-06-02T05:45:46.110Z,21.09
2018-06-02T05:46:45.842Z,21.09
2018-06-02T05:47:46.078Z,21.07
2018-06-02T05:48:46.108Z,21.17
2018-06-02T05:49:46.071Z,21.16
2018-06-02T05:50:46.076Z,21.09
2018-06-02T05:51:46.067Z,21.14
2018-06-02T05:52:45.836Z,21.16
2018-06-02T05:53:46.063Z,21.13
2018-06-02T05:54:46.001Z,21.21
2018-06-02T05:55:45.807Z,21.25
2018-06-02T05:56:46.099Z,21.19
2018-06-02T05:57:45.798Z,21.29
2018-06-02T05:58:45.817Z,21.42
2018-06-02T05:59:50.389Z,21.32
2018-06-02T06:00:45.825Z,21.34
2018-06-02T06:01:46.049Z,21.35
2018-06-02T06:02:46.059Z,21.42
2018-06-02T06:03:46.076Z,21.49
2018-06-02T06:04:45.825Z,21.61
2018-06-02T06:05:45.788Z,21.62
2018-06-02T06:06:45.791Z,21.67
2018-06-02T06:07:45.788Z,21.74
2018-06-02T06:08:45.812Z,21.8
2018-06-02T06:09:46.041Z,21.8
2018-06-02T06:10:45.806Z,21.83
2018-06-02T06:11:45.775Z,21.86
2018-06-02T06:12:46.068Z,21.84
2018-06-02T06:13:46.026Z,21.91
2018-06-02T06:14:46.043Z,21.92
2018-06-02T06:15:46.021Z,21.92
2018-06-02T06:16:46.059Z,21.98
2018-06-02T06:17:46.051Z,22.06
2018-06-02T06:18:46.040Z,22.03
2018-06-02T06:19:45.768Z,22
2018-06-02T06:20:45.770Z,22.09
2018-06-02T06:21:45.788Z,22.15
2018-06-02T06:22:45.785Z,22.25
2018-06-02T06:23:46.047Z,22.18
2018-06-02T06:24:46.010Z,22.35
2018-06-02T06:25:46.048Z,22.33
2018-06-02T06:26:46.030Z,22.42
2018-06-02T06:27:45.766Z,22.49
2018-06-02T06:28:45.784Z,22.51
2018-06-02T06:29:46.007Z,22.57
2018-06-02T06:30:45.769Z,22.67
2018-06-02T06:31:46.006Z,22.72
2018-06-02T06:32:45.792Z,22.72
2018-06-02T06:33:46.032Z,22.82
2018-06-02T06:34:45.780Z,22.9
2018-06-02T06:35:45.754Z,22.85
2018-06-02T06:36:45.767Z,22.9
2018-06-02T06:37:45.792Z,22.95
2018-06-02T06:38:46.043Z,22.94
2018-06-02T06:39:46.033Z,23.05
2018-06-02T06:40:45.753Z,23.2
2018-06-02T06:41:46.071Z,23.16
2018-06-02T06:42:46.010Z,23.23
2018-06-02T06:43:45.776Z,23.27
2018-06-02T06:44:46.385Z,23.23
2018-06-02T06:45:46.041Z,23.2
2018-06-02T06:46:45.765Z,23.32
2018-06-02T06:47:45.774Z,23.31
2018-06-02T06:48:45.749Z,23.39
2018-06-02T06:49:46.005Z,23.38
2018-06-02T06:50:45.507Z,23.48
2018-06-02T06:51:46.031Z,23.47
2018-06-02T06:52:46.019Z,23.6
2018-06-02T06:53:45.771Z,23.57
2018-06-02T06:54:46.028Z,23.61
2018-06-02T06:55:45.776Z,23.65
2018-06-02T06:56:46.004Z,23.79
2018-06-02T06:57:45.910Z,23.85
2018-06-02T06:58:46.006Z,23.85
2018-06-02T06:59:45.777Z,23.98
2018-06-02T07:00:46.005Z,23.94
2018-06-02T07:01:46.032Z,23.97
2018-06-02T07:02:45.774Z,24.06
2018-06-02T07:03:46.100Z,24.13
2018-06-02T07:04:46.006Z,24.18
2018-06-02T07:05:46.007Z,24.16
2018-06-02T07:06:46.021Z,24.2
2018-06-02T07:07:46.048Z,24.4
2018-06-02T07:08:46.037Z,24.46
2018-06-02T07:09:45.769Z,24.47
2018-06-02T07:10:46.021Z,24.62
2018-06-02T07:11:45.853Z,24.71
2018-06-02T07:12:45.784Z,24.84
2018-06-02T07:13:46.021Z,24.83
2018-06-02T07:14:45.784Z,24.93
2018-06-02T07:15:46.159Z,24.98
2018-06-02T07:16:46.066Z,25.08
2018-06-02T07:17:46.143Z,25.15
2018-06-02T07:18:46.042Z,25.27
2018-06-02T07:19:45.798Z,25.23
2018-06-02T07:20:46.024Z,25.3
2018-06-02T07:21:46.150Z,25.33
2018-06-02T07:22:45.783Z,25.52
2018-06-02T07:23:46.058Z,25.6
2018-06-02T07:24:46.085Z,25.75
2018-06-02T07:25:46.033Z,25.92
2018-06-02T07:26:46.047Z,25.99
2018-06-02T07:27:46.044Z,26.23
2018-06-02T07:28:46.068Z,26.4
2018-06-02T07:29:45.787Z,26.6
2018-06-02T07:30:46.078Z,26.81
2018-06-02T07:31:46.056Z,27.03
2018-06-02T07:32:46.089Z,27.21
2018-06-02T07:33:46.304Z,27.44
2018-06-02T07:34:46.074Z,27.74
2018-06-02T07:35:46.067Z,27.88
2018-06-02T07:36:46.094Z,28.04
2018-06-02T07:37:46.094Z,28.21
2018-06-02T07:38:46.095Z,28.34
2018-06-02T07:39:46.067Z,28.55
2018-06-02T07:40:46.075Z,28.64
2018-06-02T07:41:46.106Z,28.83
2018-06-02T07:42:46.100Z,28.9
2018-06-02T07:43:46.093Z,28.89
2018-06-02T07:44:46.131Z,28.95
2018-06-02T07:45:46.107Z,29.05
2018-06-02T07:46:46.165Z,29.19
2018-06-02T07:47:46.139Z,29.24
2018-06-02T07:53:45.914Z,29.67
2018-06-02T07:54:46.154Z,29.76
2018-06-02T07:55:45.916Z,29.8
2018-06-02T07:56:45.905Z,29.79
2018-06-02T07:57:46.309Z,29.85
2018-06-02T07:58:45.934Z,29.95
2018-06-02T07:59:46.193Z,30.04
2018-06-02T08:00:46.229Z,30.15
2018-06-02T08:01:45.933Z,30.31
2018-06-02T08:02:46.234Z,30.45
2018-06-02T08:03:46.496Z,30.64
2018-06-02T08:04:46.240Z,30.67
2018-06-02T08:05:46.211Z,30.82
2018-06-02T08:06:46.249Z,30.98
2018-06-02T08:07:46.220Z,31.06
2018-06-02T08:08:45.800Z,31.2
2018-06-02T08:09:46.250Z,31.32
2018-06-02T08:10:46.284Z,31.31
2018-06-02T08:11:46.023Z,31.36
2018-06-02T08:12:46.296Z,31.35
2018-06-02T08:13:58.999Z,31.32
2018-06-02T08:14:46.309Z,31.29
2018-06-02T08:15:46.300Z,31.23
2018-06-02T08:17:46.298Z,31.17
2018-06-02T08:18:46.306Z,31.2
2018-06-02T08:19:46.344Z,31.17
2018-06-02T08:20:46.092Z,31.13
2018-06-02T08:21:46.362Z,31.19
2018-06-02T08:22:46.338Z,31.1
2018-06-02T08:23:46.376Z,31.17
2018-06-02T08:24:46.354Z,31.19
2018-06-02T08:25:46.398Z,31.23
2018-06-02T08:26:46.257Z,31.23
2018-06-02T08:27:46.158Z,31.2
2018-06-02T08:28:46.405Z,31.25
2018-06-02T08:29:46.434Z,31.23
2018-06-02T08:30:46.425Z,31.32
2018-06-02T08:31:46.412Z,31.28
2018-06-02T08:32:46.449Z,31.35
2018-06-02T08:33:46.545Z,31.39
2018-06-02T08:34:46.475Z,31.53
2018-06-02T08:35:46.448Z,31.56
2018-06-02T08:36:46.498Z,31.78
2018-06-02T08:37:46.466Z,31.85
2018-06-02T08:38:46.509Z,32
2018-06-02T08:39:46.480Z,32.29
2018-06-02T08:40:46.507Z,32.5
2018-06-02T08:41:46.530Z,32.7
2018-06-02T08:42:45.999Z,32.92
2018-06-02T08:43:46.547Z,33.16
2018-06-02T08:44:46.532Z,33.39
2018-06-02T08:45:46.589Z,33.53
2018-06-02T08:46:46.049Z,33.53
2018-06-02T08:47:46.053Z,33.66
2018-06-02T08:48:46.602Z,33.63
2018-06-02T08:49:46.625Z,33.59
2018-06-02T08:50:46.626Z,33.56
2018-06-02T08:51:46.597Z,33.57
2018-06-02T08:52:46.618Z,33.39
2018-06-02T08:53:46.359Z,33.11
2018-06-02T08:54:46.662Z,33.06
2018-06-02T08:55:46.633Z,33.03
2018-06-02T08:56:46.428Z,33.06
2018-06-02T08:57:46.646Z,33.01
2018-06-02T08:58:46.703Z,33.01
2018-06-02T08:59:46.417Z,33.01
2018-06-02T09:00:46.711Z,32.89
2018-06-02T09:01:46.686Z,32.94
2018-06-02T09:02:46.777Z,32.81
2018-06-02T09:03:46.735Z,32.77
2018-06-02T09:04:46.486Z,32.78
2018-06-02T09:05:46.734Z,32.81
2018-06-02T09:06:46.768Z,32.78
2018-06-02T09:07:46.760Z,32.77
2018-06-02T09:08:46.773Z,32.67
2018-06-02T09:09:46.787Z,32.69
2018-06-02T09:10:46.547Z,32.66
2018-06-02T09:11:46.528Z,32.59
2018-06-02T09:12:46.823Z,32.48
2018-06-02T09:14:46.565Z,32.4
2018-06-02T09:15:46.574Z,32.43
2018-06-02T09:16:46.821Z,32.52
2018-06-02T09:17:46.870Z,32.55
2018-06-02T09:18:46.589Z,32.52
2018-06-02T09:19:46.865Z,32.59
2018-06-02T09:20:46.891Z,32.56
2018-06-02T09:21:47.092Z,32.55
2018-06-02T09:22:46.948Z,32.51
2018-06-02T09:23:46.897Z,32.48
2018-06-02T09:24:46.682Z,32.41
2018-06-02T09:25:46.652Z,32.48
2018-06-02T09:26:46.672Z,32.3
2018-06-02T09:27:46.945Z,32.22
2018-06-02T09:28:46.970Z,32.03
2018-06-02T09:29:46.970Z,32.01
2018-06-02T09:30:46.958Z,31.88
2018-06-02T09:31:46.977Z,31.92
2018-06-02T09:32:47.052Z,31.96
2018-06-02T09:33:46.979Z,31.89
2018-06-02T09:34:47.009Z,32.03
2018-06-02T09:35:46.978Z,32.01
2018-06-02T09:36:47.032Z,32.01
2018-06-02T09:37:46.996Z,32.22
2018-06-02T09:38:47.044Z,32.11
2018-06-02T09:39:46.796Z,32.18
2018-06-02T09:40:47.073Z,32.28
2018-06-02T09:41:47.078Z,32.32
2018-06-02T09:42:47.050Z,32.21
2018-06-02T09:43:47.094Z,32.19
2018-06-02T09:44:47.417Z,32.26
2018-06-02T09:45:47.096Z,32.35
2018-06-02T09:46:47.178Z,32.41
2018-06-02T09:47:47.247Z,32.47
2018-06-02T09:48:46.630Z,32.57
2018-06-02T09:49:47.137Z,32.63
2018-06-02T09:50:47.159Z,32.69
2018-06-02T09:51:46.905Z,32.89
2018-06-02T09:52:46.897Z,32.97
2018-06-02T09:53:47.187Z,32.97
2018-06-02T09:54:47.137Z,32.94
2018-06-02T09:55:47.193Z,32.94
2018-06-02T09:56:47.160Z,32.88
2018-06-02T09:57:47.349Z,32.89
2018-06-02T09:58:47.212Z,32.88
2018-06-02T09:59:46.970Z,32.87
2018-06-02T10:00:47.237Z,33.01
2018-06-02T10:01:46.974Z,32.94
2018-06-02T10:02:46.968Z,33.03
2018-06-02T10:03:46.974Z,33.09
2018-06-02T10:04:47.422Z,33.31
2018-06-02T10:05:47.284Z,33.34
2018-06-02T10:06:47.249Z,33.39
2018-06-02T10:07:47.287Z,33.5
2018-06-02T10:08:47.276Z,33.54
2018-06-02T10:09:47.305Z,33.44
2018-06-02T10:16:47.329Z,33.97
2018-06-02T10:17:47.388Z,34
2018-06-02T10:18:47.365Z,34.17
2018-06-02T10:19:47.390Z,34.25
2018-06-02T10:20:47.383Z,34.31
2018-06-02T10:21:47.170Z,34.31
2018-06-02T10:22:47.143Z,34.3
2018-06-02T10:23:47.428Z,34.25
2018-06-02T10:24:47.413Z,34.19
2018-06-02T10:25:46.936Z,34.1
2018-06-02T10:26:47.445Z,33.95
2018-06-02T10:27:47.465Z,33.82
2018-06-02T10:28:47.436Z,33.71
2018-06-02T10:29:47.221Z,33.6
2018-06-02T10:30:47.458Z,33.63
2018-06-02T10:31:47.478Z,33.63
2018-06-02T10:32:47.506Z,33.47
2018-06-02T10:33:47.515Z,33.44
2018-06-02T10:34:47.497Z,33.37
2018-06-02T10:35:47.856Z,33.29
2018-06-02T10:36:47.571Z,33.18
2018-06-02T10:37:47.540Z,33.14
2018-06-02T10:38:47.521Z,33.22
2018-06-02T10:39:47.563Z,33.19
2018-06-02T10:40:47.553Z,33.18
2018-06-02T10:41:47.572Z,33.29
2018-06-02T10:42:47.852Z,33.35
2018-06-02T10:43:47.597Z,33.44
2018-06-02T10:44:47.581Z,33.45
2018-06-02T10:45:47.597Z,33.61
2018-06-02T10:46:47.633Z,33.47
2018-06-02T10:47:47.620Z,33.51
2018-06-02T10:48:47.652Z,33.6
2018-06-02T10:49:47.360Z,33.56
2018-06-02T10:50:47.651Z,33.61
2018-06-02T10:51:47.630Z,33.84
2018-06-02T10:52:47.700Z,34.02
2018-06-02T10:53:47.642Z,34.22
2018-06-02T10:54:47.424Z,34.44
2018-06-02T10:55:47.682Z,34.56
2018-06-02T10:56:47.672Z,34.53
2018-06-02T10:57:47.455Z,34.66
2018-06-02T10:58:47.717Z,34.85
2018-06-02T10:59:47.718Z,34.81
2018-06-02T11:00:47.716Z,35
2018-06-02T11:01:47.870Z,35.15
2018-06-02T11:02:47.756Z,35.23
2018-06-02T11:03:47.758Z,35.41
2018-06-02T11:04:47.776Z,35.44
2018-06-02T11:05:47.758Z,35.41
2018-06-02T11:06:47.800Z,35.25
2018-06-02T11:07:47.794Z,35.15
2018-06-02T11:08:47.799Z,34.94
2018-06-02T11:09:47.841Z,34.85
2018-06-02T11:10:47.814Z,34.91
2018-06-02T11:11:47.834Z,34.84
2018-06-02T11:12:47.830Z,34.69
2018-06-02T11:13:47.867Z,34.52
2018-06-02T11:14:47.658Z,34.43
2018-06-02T11:15:47.873Z,34.34
2018-06-02T11:16:47.875Z,34.1
2018-06-02T11:17:47.367Z,34.02
2018-06-02T11:18:47.657Z,33.87
2018-06-02T11:19:47.929Z,33.81
2018-06-02T11:20:47.923Z,33.65
2018-06-02T11:21:47.952Z,33.68
2018-06-02T11:22:47.916Z,33.42
2018-06-02T11:23:47.963Z,33.51
2018-06-02T11:24:47.946Z,33.35
2018-06-02T11:25:48.162Z,33.11
2018-06-02T11:26:47.947Z,32.92
2018-06-02T11:27:48.009Z,32.84
2018-06-02T11:28:47.706Z,32.63
2018-06-02T11:29:48.040Z,32.5
2018-06-02T11:30:48.008Z,32.25
2018-06-02T11:31:48.020Z,32.08
2018-06-02T11:32:47.997Z,32.03
2018-06-02T11:33:48.001Z,32.07
2018-06-02T11:34:48.043Z,32.03
2018-06-02T11:35:48.105Z,32.03
2018-06-02T11:36:47.802Z,32.06
2018-06-02T11:37:47.790Z,31.93
2018-06-02T11:38:47.567Z,32
2018-06-02T11:39:47.544Z,31.89
2018-06-02T11:40:48.135Z,32
2018-06-02T11:41:47.813Z,32.03
2018-06-02T11:42:48.126Z,32.01
2018-06-02T11:43:48.105Z,32.06
2018-06-02T11:44:48.132Z,31.92
2018-06-02T11:45:48.123Z,31.81
2018-06-02T11:46:48.150Z,31.76
2018-06-02T11:47:48.123Z,31.78
2018-06-02T11:48:47.865Z,31.8
2018-06-02T11:49:48.151Z,31.91
2018-06-02T11:50:48.153Z,31.92
2018-06-02T11:51:48.159Z,31.89
2018-06-02T11:52:48.184Z,31.91
2018-06-02T11:53:48.160Z,31.96
2018-06-02T11:54:48.182Z,32.1
2018-06-02T11:55:48.161Z,32.29
2018-06-02T12:05:48.785Z,33.06
2018-06-02T12:06:48.006Z,33.14
2018-06-02T12:07:48.280Z,33.12
2018-06-02T12:08:47.997Z,33.07
2018-06-02T12:09:48.294Z,33.09
2018-06-02T12:10:48.557Z,32.97
2018-06-02T12:11:48.039Z,32.88
2018-06-02T12:12:48.272Z,32.99
2018-06-02T12:13:48.099Z,32.89
2018-06-02T12:14:48.284Z,32.87
2018-06-02T12:15:48.592Z,32.78
2018-06-02T12:16:48.318Z,32.74
2018-06-02T12:17:48.351Z,32.7
2018-06-02T12:18:48.132Z,32.65
2018-06-02T12:19:48.362Z,32.57
2018-06-02T12:20:48.108Z,32.5
2018-06-02T12:21:48.140Z,32.57
2018-06-02T12:22:48.378Z,32.5
2018-06-02T12:23:48.428Z,32.56
2018-06-02T12:24:48.584Z,32.69
2018-06-02T12:25:48.374Z,32.82
2018-06-02T12:26:48.372Z,32.84
2018-06-02T12:27:48.157Z,32.93
2018-06-02T12:28:48.398Z,33.09
2018-06-02T12:29:48.426Z,33.22
2018-06-02T12:30:48.143Z,33.31
2018-06-02T12:31:48.452Z,33.39
2018-06-02T12:32:48.163Z,33.53
2018-06-02T12:33:48.453Z,33.66
2018-06-02T12:34:48.659Z,33.81
2018-06-02T12:35:48.488Z,33.88
2018-06-02T12:36:48.221Z,34.02
2018-06-02T12:37:48.486Z,34.03
2018-06-02T12:38:48.238Z,34.1
2018-06-02T12:39:48.226Z,34.17
2018-06-02T12:40:48.514Z,34.12
2018-06-02T12:41:48.503Z,34.09
2018-06-02T12:42:48.529Z,34.02
2018-06-02T12:43:48.520Z,33.79
2018-06-02T12:44:48.564Z,33.71
2018-06-02T12:45:48.574Z,33.57
2018-06-02T12:46:48.529Z,33.49
2018-06-02T12:47:48.665Z,33.35
2018-06-02T12:50:48.554Z,33.04
2018-06-02T12:57:48.613Z,32
2018-06-02T12:58:48.659Z,31.84
2018-06-02T12:59:48.673Z,31.68
2018-06-02T13:00:48.664Z,31.5
2018-06-02T13:01:48.693Z,31.48
2018-06-02T13:02:48.414Z,31.23
2018-06-02T13:03:48.205Z,31.09
2018-06-02T13:04:48.414Z,30.97
2018-06-02T13:05:48.737Z,30.91
2018-06-02T13:06:48.862Z,30.76
2018-06-02T13:07:48.471Z,30.58
2018-06-02T13:08:48.740Z,30.43
2018-06-02T13:09:48.725Z,30.26
2018-06-02T13:10:48.441Z,30.16
2018-06-02T13:11:48.688Z,30.05
2018-06-02T13:12:48.765Z,29.97
2018-06-02T13:13:48.724Z,29.79
2018-06-02T13:14:48.487Z,29.68
2018-06-02T13:15:48.480Z,29.58
2018-06-02T13:16:48.753Z,29.33
2018-06-02T13:17:48.502Z,29.21
2018-06-02T13:18:48.518Z,29.11
2018-06-02T13:19:48.751Z,29.02
2018-06-02T13:20:48.509Z,28.92
2018-06-02T13:21:48.745Z,28.8
2018-06-02T13:22:48.783Z,28.61
2018-06-02T13:23:48.756Z,28.48
2018-06-02T13:24:48.788Z,28.29
2018-06-02T13:25:48.754Z,28.15